Time;durP1;ratioP1;P1;durP2;ratioP2;P2;SDS_P1;SDS_P2;PMS_P1;PMS_P2;Temp;Humidity;BMP_temperature;BMP_pressure;BME280_temperature;BME280_humidity;BME280_pressure;Samples;Min_cycle;Max_cycle;Signal;HPM_P1;HPM_P2
2021/07/13 00:09:46;;;;;;;21.67;5.80;;;21.20;99.90;;;;;;4981502;28;20450;-86
2021/07/13 00:15:30;;;;;;;22.67;6.03;;;21.10;99.90;;;;;;5047925;28;20479;-85
2021/07/13 00:18:07;;;;;;;20.20;5.10;;;21.10;99.90;;;;;;5051498;28;20538;-85
2021/07/13 00:24:05;;;;;;;19.77;5.43;;;21.20;99.90;;;;;;5051450;28;20436;-85
2021/07/13 00:32:27;;;;;;;20.17;5.87;;;21.10;99.90;;;;;;5054555;28;20555;-85
2021/07/13 00:35:32;;;;;;;18.90;5.37;;;21.10;99.90;;;;;;5032154;28;20468;-86
2021/07/13 00:38:23;;;;;;;18.60;5.43;;;21.10;99.90;;;;;;5031927;28;20980;-86
2021/07/13 00:41:05;;;;;;;19.80;5.77;;;21.20;99.90;;;;;;5024413;28;20460;-86
2021/07/13 00:51:00;;;;;;;16.90;5.10;;;21.20;99.90;;;;;;5034679;28;20433;-85
2021/07/13 00:54:00;;;;;;;17.93;4.70;;;21.10;99.90;;;;;;4910438;29;20527;-86
2021/07/13 01:07:24;;;;;;;17.40;5.10;;;21.00;99.90;;;;;;5135985;22;20508;-85
2021/07/13 01:13:55;;;;;;;17.50;5.33;;;21.00;99.90;;;;;;5023571;28;20467;-85
2021/07/13 01:17:11;;;;;;;19.03;5.00;;;21.00;99.90;;;;;;5095461;28;20464;-87
2021/07/13 01:23:37;;;;;;;16.60;4.33;;;21.00;99.90;;;;;;5033155;28;20430;-85
2021/07/13 01:29:38;;;;;;;19.40;5.73;;;20.90;99.90;;;;;;5094018;28;20859;-87
2021/07/13 01:55:22;;;;;;;21.90;7.70;;;20.90;99.90;;;;;;5055643;28;20478;-87
2021/07/13 01:58:18;;;;;;;;;;;;;;;;;;;;;
2021/07/13 02:01:11;;;;;;;21.10;7.50;;;20.90;99.90;;;;;;5060201;28;20450;-85
2021/07/13 02:03:46;;;;;;;21.07;7.17;;;20.80;99.90;;;;;;5055881;28;20452;-86
2021/07/13 02:09:46;;;;;;;21.67;6.67;;;20.90;99.90;;;;;;5052117;28;20951;-86
2021/07/13 02:33:25;;;;;;;;;;;;;;;;;;;;;
2021/07/13 03:02:53;;;;;;;16.80;6.50;;;20.70;99.90;;;;;;5090125;28;20478;-86
2021/07/13 03:20:58;;;;;;;22.10;8.37;;;20.70;99.90;;;;;;5014301;28;20926;-86
2021/07/13 03:26:46;;;;;;;18.13;7.37;;;20.70;99.90;;;;;;5024881;28;20660;-87
2021/07/13 03:33:51;;;;;;;21.00;8.90;;;20.70;99.90;;;;;;5036397;28;20443;-85
2021/07/13 03:36:36;;;;;;;21.77;9.57;;;20.60;99.90;;;;;;5039633;23;20603;-86
2021/07/13 03:42:24;;;;;;;20.40;8.57;;;20.60;99.90;;;;;;5051713;28;20483;-86
2021/07/13 03:54:16;;;;;;;23.70;11.40;;;20.50;99.90;;;;;;5014231;28;20461;-86
2021/07/13 03:56:45;;;;;;;21.97;11.77;;;20.50;99.90;;;;;;5037207;28;20456;-85
2021/07/13 03:59:15;;;;;;;21.47;10.30;;;20.50;99.90;;;;;;5054066;28;20467;-86
2021/07/13 04:01:49;;;;;;;21.50;10.90;;;20.50;99.90;;;;;;5047853;28;20460;-87
2021/07/13 04:04:36;;;;;;;20.40;10.30;;;20.40;99.90;;;;;;5035832;28;20579;-87
2021/07/13 04:07:13;;;;;;;22.40;11.80;;;20.40;99.90;;;;;;5044291;28;20479;-87
2021/07/13 04:09:41;;;;;;;21.03;12.00;;;20.40;99.90;;;;;;5054099;28;20950;-87
2021/07/13 04:12:17;;;;;;;21.87;11.23;;;20.40;99.90;;;;;;5037978;28;20915;-88
2021/07/13 04:15:02;;;;;;;19.83;10.97;;;20.40;99.90;;;;;;5051536;28;20511;-87
2021/07/13 04:18:00;;;;;;;19.67;11.00;;;20.40;99.90;;;;;;5052343;28;20951;-88
2021/07/13 04:20:40;;;;;;;21.60;12.20;;;20.40;99.90;;;;;;5052142;28;20456;-87
2021/07/13 04:23:23;;;;;;;21.93;11.60;;;20.30;99.90;;;;;;5052553;28;20506;-88
2021/07/13 04:26:11;;;;;;;;;;;;;;;;;;;;;
2021/07/13 04:31:29;;;;;;;22.00;12.20;;;20.30;99.90;;;;;;5025397;28;20499;-87
2021/07/13 04:34:13;;;;;;;21.80;10.80;;;20.30;99.90;;;;;;5032175;28;20979;-87
2021/07/13 04:36:46;;;;;;;20.00;11.80;;;20.30;99.90;;;;;;5032622;28;20551;-86
2021/07/13 04:42:30;;;;;;;22.37;11.90;;;20.30;99.90;;;;;;4990708;28;20531;-88
2021/07/13 04:45:05;;;;;;;21.03;11.53;;;20.30;99.90;;;;;;4985777;28;20577;-87
2021/07/13 04:47:45;;;;;;;21.03;11.90;;;20.30;99.90;;;;;;5039271;28;20469;-86
2021/07/13 04:50:17;;;;;;;22.80;13.30;;;20.30;99.90;;;;;;5055807;28;20467;-86
2021/07/13 04:52:46;;;;;;;21.87;13.17;;;20.30;99.90;;;;;;5049291;28;20514;-85
2021/07/13 04:55:17;;;;;;;23.03;13.50;;;20.30;99.90;;;;;;5036423;28;20545;-87
2021/07/13 04:57:44;;;;;;;21.43;12.50;;;20.30;99.90;;;;;;5036490;28;20459;-86
2021/07/13 05:00:13;;;;;;;23.27;12.87;;;20.30;99.90;;;;;;5037325;28;20535;-86
2021/07/13 05:02:39;;;;;;;22.17;12.63;;;20.30;99.90;;;;;;5037917;28;20520;-85
2021/07/13 05:05:10;;;;;;;24.53;13.57;;;20.30;99.90;;;;;;5038725;28;20518;-85
2021/07/13 05:07:39;;;;;;;22.80;13.03;;;20.30;99.90;;;;;;5039390;28;20586;-86
2021/07/13 05:10:09;;;;;;;21.47;13.07;;;20.30;99.90;;;;;;5052908;28;20444;-85
2021/07/13 05:12:36;;;;;;;22.03;12.53;;;20.30;99.90;;;;;;5054684;28;20443;-85
2021/07/13 05:15:04;;;;;;;22.80;13.40;;;20.40;99.90;;;;;;5057316;28;20467;-85
2021/07/13 05:17:30;;;;;;;21.83;13.30;;;20.40;99.90;;;;;;5056239;28;20539;-87
2021/07/13 05:19:57;;;;;;;23.80;13.57;;;20.40;99.90;;;;;;5055763;28;20466;-85
2021/07/13 05:22:24;;;;;;;22.60;12.30;;;20.40;99.90;;;;;;5055204;28;20436;-86
2021/07/13 05:24:51;;;;;;;23.10;12.90;;;20.40;99.90;;;;;;5049645;28;20516;-86
2021/07/13 05:27:20;;;;;;;21.80;13.00;;;20.40;99.90;;;;;;5036799;28;20492;-85
2021/07/13 05:29:46;;;;;;;21.93;13.90;;;20.40;99.90;;;;;;5037365;28;20456;-86
2021/07/13 05:32:13;;;;;;;20.80;12.63;;;20.40;99.90;;;;;;5050442;28;20998;-85
2021/07/13 05:34:42;;;;;;;21.13;13.50;;;20.50;99.90;;;;;;5040664;28;20502;-86
2021/07/13 05:37:10;;;;;;;23.60;13.27;;;20.50;99.90;;;;;;5041799;28;20437;-85
2021/07/13 05:39:37;;;;;;;23.20;14.50;;;20.50;99.90;;;;;;5047013;28;20456;-86
2021/07/13 05:42:05;;;;;;;23.37;14.70;;;20.50;99.90;;;;;;5047141;28;20535;-86
2021/07/13 05:44:33;;;;;;;28.13;15.90;;;20.50;99.90;;;;;;5039414;28;21011;-86
2021/07/13 05:47:00;;;;;;;26.80;16.30;;;20.50;99.90;;;;;;5047013;28;21022;-86
2021/07/13 05:49:27;;;;;;;22.70;13.20;;;20.50;99.90;;;;;;5036917;28;20452;-85
2021/07/13 05:51:53;;;;;;;24.40;15.93;;;20.50;99.90;;;;;;5080316;22;20490;-83
2021/07/13 05:54:20;;;;;;;24.47;16.63;;;20.60;99.90;;;;;;5066172;28;20877;-84
2021/07/13 05:56:47;;;;;;;26.10;18.13;;;20.50;99.90;;;;;;5078358;28;20439;-83
2021/07/13 05:59:14;;;;;;;24.47;16.10;;;20.50;99.90;;;;;;5079487;28;20455;-84
2021/07/13 06:01:42;;;;;;;23.27;16.97;;;20.50;99.90;;;;;;5060783;28;20463;-83
2021/07/13 06:04:09;;;;;;;24.43;17.50;;;20.50;99.90;;;;;;5056931;28;20444;-82
2021/07/13 06:06:36;;;;;;;25.13;17.37;;;20.50;99.90;;;;;;5058424;28;20487;-83
2021/07/13 06:09:03;;;;;;;24.50;17.07;;;20.60;99.90;;;;;;5044437;28;20457;-84
2021/07/13 06:11:29;;;;;;;23.87;17.27;;;20.50;99.90;;;;;;5043607;28;21155;-83
2021/07/13 06:13:56;;;;;;;25.10;17.67;;;20.50;99.90;;;;;;5057112;28;20458;-82
2021/07/13 06:16:23;;;;;;;22.67;15.97;;;20.60;99.90;;;;;;5060840;28;20452;-84
2021/07/13 06:18:51;;;;;;;25.23;16.60;;;20.50;99.90;;;;;;5043684;28;20949;-83
2021/07/13 06:21:18;;;;;;;24.53;17.60;;;20.50;99.90;;;;;;5048774;28;20465;-83
2021/07/13 06:23:45;;;;;;;21.67;16.50;;;20.50;99.90;;;;;;5047020;28;20520;-82
2021/07/13 06:26:12;;;;;;;27.07;19.10;;;20.50;99.90;;;;;;5055860;28;20570;-83
2021/07/13 06:28:38;;;;;;;29.30;18.90;;;20.50;99.90;;;;;;5051193;28;20461;-83
2021/07/13 06:31:05;;;;;;;26.07;18.77;;;20.50;99.90;;;;;;5055368;28;20471;-83
2021/07/13 06:33:32;;;;;;;29.93;19.17;;;20.50;99.90;;;;;;5049825;28;20456;-82
2021/07/13 06:36:00;;;;;;;27.57;18.80;;;20.40;99.90;;;;;;5057658;28;20961;-81
2021/07/13 06:38:27;;;;;;;25.13;17.77;;;20.40;99.90;;;;;;5047918;28;20447;-81
2021/07/13 06:40:54;;;;;;;34.37;22.57;;;20.40;99.90;;;;;;5050897;28;20464;-81
2021/07/13 06:43:20;;;;;;;31.00;20.83;;;20.40;99.90;;;;;;5047114;28;20460;-83
2021/07/13 06:45:47;;;;;;;29.70;22.10;;;20.40;99.90;;;;;;5051591;28;20452;-81
2021/07/13 06:48:14;;;;;;;29.93;22.20;;;20.30;99.90;;;;;;5051692;28;20451;-82
2021/07/13 06:50:41;;;;;;;31.80;23.10;;;20.40;99.90;;;;;;5051798;28;20480;-82
2021/07/13 06:53:09;;;;;;;35.63;23.00;;;20.40;99.90;;;;;;5048640;28;20448;-81
2021/07/13 06:55:36;;;;;;;31.53;23.10;;;20.40;99.90;;;;;;5050507;28;20833;-82
2021/07/13 06:58:03;;;;;;;36.57;26.60;;;20.40;99.90;;;;;;5060216;28;20474;-82
2021/07/13 07:00:30;;;;;;;32.70;25.53;;;20.40;99.90;;;;;;5050376;28;20480;-82
2021/07/13 07:02:56;;;;;;;35.70;26.47;;;20.50;99.90;;;;;;5058485;28;20455;-82
2021/07/13 07:05:23;;;;;;;31.00;24.70;;;20.50;99.90;;;;;;5056288;28;20485;-82
2021/07/13 07:07:51;;;;;;;36.87;26.73;;;20.60;99.90;;;;;;5062950;28;20490;-83
2021/07/13 07:10:20;;;;;;;32.47;25.80;;;20.60;99.90;;;;;;5069401;28;20451;-82
2021/07/13 07:12:49;;;;;;;32.83;24.07;;;20.70;99.90;;;;;;5058382;28;20452;-82
2021/07/13 07:15:16;;;;;;;41.47;29.63;;;20.70;99.90;;;;;;5057130;28;20448;-82
2021/07/13 07:17:44;;;;;;;40.00;29.80;;;20.70;99.90;;;;;;5042780;28;20480;-83
2021/07/13 07:20:12;;;;;;;37.47;29.73;;;20.70;99.90;;;;;;5046908;28;20455;-82
2021/07/13 07:22:39;;;;;;;36.70;29.00;;;20.70;99.90;;;;;;5063790;28;20451;-82
2021/07/13 07:25:07;;;;;;;33.80;26.97;;;20.80;99.90;;;;;;5044877;28;20860;-81
2021/07/13 07:27:35;;;;;;;37.67;29.17;;;20.90;99.90;;;;;;5058195;28;20487;-82
2021/07/13 07:30:04;;;;;;;41.10;30.77;;;21.00;99.90;;;;;;5056053;28;20522;-82
2021/07/13 07:32:31;;;;;;;38.53;30.77;;;21.10;99.90;;;;;;5057441;28;20462;-81
2021/07/13 07:34:57;;;;;;;39.03;31.73;;;21.10;99.90;;;;;;5056912;28;20458;-82
2021/07/13 07:37:24;;;;;;;41.90;33.57;;;21.20;99.90;;;;;;5040931;28;20468;-83
2021/07/13 07:39:51;;;;;;;40.77;32.00;;;21.30;99.90;;;;;;5038286;28;20983;-82
2021/07/13 07:42:18;;;;;;;40.67;32.40;;;21.40;99.90;;;;;;5051018;28;20481;-82
2021/07/13 07:44:46;;;;;;;40.13;32.60;;;21.40;99.90;;;;;;5048909;28;20487;-82
2021/07/13 07:47:14;;;;;;;41.47;32.80;;;21.50;99.90;;;;;;5045973;28;20499;-83
2021/07/13 07:49:41;;;;;;;40.63;30.40;;;21.50;99.90;;;;;;5048299;28;20535;-83
2021/07/13 07:52:31;;;;;;;36.53;28.93;;;21.50;99.90;;;;;;5039988;28;20478;-82
2021/07/13 07:55:12;;;;;;;41.60;30.27;;;21.50;99.90;;;;;;5030857;28;20531;-82
2021/07/13 07:57:39;;;;;;;35.53;26.73;;;21.50;99.90;;;;;;5045651;28;20821;-82
2021/07/13 08:00:11;;;;;;;38.07;28.97;;;21.60;99.90;;;;;;5064329;28;20449;-82
2021/07/13 08:02:38;;;;;;;36.50;27.70;;;21.60;99.90;;;;;;5069883;28;20455;-83
2021/07/13 08:05:06;;;;;;;37.67;29.37;;;21.60;99.90;;;;;;5066889;28;20538;-83
2021/07/13 08:07:33;;;;;;;43.17;33.23;;;21.50;99.90;;;;;;5065173;28;20509;-82
2021/07/13 08:10:00;;;;;;;38.87;31.33;;;21.60;99.90;;;;;;5064666;28;20476;-82
2021/07/13 08:12:27;;;;;;;50.77;37.87;;;21.60;99.90;;;;;;5056501;28;20619;-83
2021/07/13 08:14:54;;;;;;;40.73;34.03;;;21.60;99.90;;;;;;5052733;28;20455;-84
2021/07/13 08:17:22;;;;;;;50.43;38.37;;;21.60;99.90;;;;;;5045848;28;20504;-83
2021/07/13 08:19:49;;;;;;;44.60;34.67;;;21.70;99.90;;;;;;5053351;28;20444;-83
2021/07/13 08:22:16;;;;;;;43.77;34.07;;;21.80;99.90;;;;;;5039268;28;20551;-85
2021/07/13 08:24:43;;;;;;;40.07;32.73;;;21.80;99.90;;;;;;5056132;28;20447;-84
2021/07/13 08:27:11;;;;;;;41.77;35.00;;;21.90;99.90;;;;;;5059384;28;20853;-84
2021/07/13 08:29:38;;;;;;;45.90;36.43;;;21.90;99.90;;;;;;5058946;28;20512;-85
2021/07/13 08:32:06;;;;;;;43.77;34.57;;;21.90;99.90;;;;;;5059765;28;20482;-84
2021/07/13 08:34:35;;;;;;;43.90;33.53;;;22.00;99.90;;;;;;5059568;28;20452;-84
2021/07/13 08:37:03;;;;;;;42.30;32.13;;;21.80;99.90;;;;;;5056286;28;20448;-84
2021/07/13 08:39:30;;;;;;;42.10;34.30;;;21.90;99.90;;;;;;5038699;28;20510;-84
2021/07/13 08:41:58;;;;;;;43.80;33.13;;;21.90;99.90;;;;;;5038953;28;20469;-85
2021/07/13 08:44:25;;;;;;;40.80;32.63;;;22.00;99.90;;;;;;5039426;28;20444;-84
2021/07/13 08:46:51;;;;;;;40.60;29.70;;;22.00;99.90;;;;;;5038379;28;20560;-83
2021/07/13 08:49:19;;;;;;;40.13;31.67;;;22.00;99.90;;;;;;5039122;28;20451;-84
2021/07/13 08:51:48;;;;;;;40.93;31.00;;;22.00;99.90;;;;;;5039555;28;20480;-84
2021/07/13 08:54:15;;;;;;;39.67;31.80;;;22.10;99.90;;;;;;5039541;28;20453;-83
2021/07/13 08:56:42;;;;;;;36.73;29.30;;;22.20;99.90;;;;;;5039959;28;20878;-84
2021/07/13 08:59:08;;;;;;;38.53;30.30;;;22.20;99.90;;;;;;5039121;28;20452;-84
2021/07/13 09:01:35;;;;;;;37.93;29.67;;;22.20;99.90;;;;;;5047765;28;20473;-85
2021/07/13 09:04:04;;;;;;;39.00;31.50;;;22.20;99.90;;;;;;5044748;28;20479;-85
2021/07/13 09:06:52;;;;;;;37.50;30.43;;;22.20;99.90;;;;;;5044942;28;20948;-84
2021/07/13 09:09:26;;;;;;;37.57;29.53;;;22.30;99.90;;;;;;5047872;28;20453;-85
2021/07/13 09:12:23;;;;;;;39.93;29.70;;;22.40;99.90;;;;;;5048053;28;20475;-85
2021/07/13 09:14:52;;;;;;;37.57;28.93;;;22.40;99.90;;;;;;5022519;28;20422;-85
2021/07/13 09:17:27;;;;;;;36.33;29.23;;;22.50;99.90;;;;;;5037650;28;20441;-85
2021/07/13 09:20:04;;;;;;;37.70;29.43;;;22.70;99.90;;;;;;5040732;28;20444;-85
2021/07/13 09:22:32;;;;;;;34.50;27.77;;;22.90;99.90;;;;;;5057919;28;20448;-85
2021/07/13 09:24:59;;;;;;;34.63;28.47;;;22.90;99.90;;;;;;5060377;28;20535;-84
2021/07/13 09:27:28;;;;;;;34.40;28.80;;;23.00;99.90;;;;;;5070342;28;20505;-84
2021/07/13 09:29:55;;;;;;;34.17;27.53;;;23.20;99.90;;;;;;5069702;28;20498;-84
2021/07/13 09:32:25;;;;;;;31.73;25.50;;;23.30;99.90;;;;;;5070902;28;20467;-84
2021/07/13 09:34:53;;;;;;;31.23;25.80;;;23.30;99.90;;;;;;5070129;28;20456;-84
2021/07/13 09:37:22;;;;;;;32.37;24.70;;;23.50;99.90;;;;;;5083342;28;20449;-84
2021/07/13 09:40:03;;;;;;;34.70;25.73;;;23.60;99.90;;;;;;5073865;28;20519;-85
2021/07/13 09:42:31;;;;;;;32.93;24.17;;;23.70;99.90;;;;;;5064991;28;20549;-85
2021/07/13 09:45:33;;;;;;;31.20;22.97;;;23.70;99.90;;;;;;5070653;28;20444;-85
2021/07/13 09:48:02;;;;;;;27.60;22.57;;;23.60;99.90;;;;;;4976495;28;20558;-85
2021/07/13 09:50:39;;;;;;;30.80;24.13;;;23.70;99.90;;;;;;4972041;28;20483;-84
2021/07/13 09:53:07;;;;;;;28.40;21.57;;;23.70;99.90;;;;;;5020682;28;20481;-84
2021/07/13 09:55:36;;;;;;;28.67;23.33;;;23.70;99.90;;;;;;5066982;28;20543;-84
2021/07/13 09:58:18;;;;;;;28.87;22.90;;;23.80;99.90;;;;;;5053163;28;20447;-84
2021/07/13 10:00:47;;;;;;;34.27;23.20;;;23.90;99.90;;;;;;5068197;28;20471;-84
2021/07/13 10:03:16;;;;;;;30.90;23.00;;;24.10;99.90;;;;;;5052215;28;20452;-84
2021/07/13 10:05:45;;;;;;;29.97;21.73;;;24.30;99.90;;;;;;5059819;28;20456;-85
2021/07/13 10:08:14;;;;;;;27.47;19.87;;;24.40;99.90;;;;;;5068288;28;20483;-85
2021/07/13 10:10:44;;;;;;;27.03;19.87;;;24.50;99.90;;;;;;5075501;28;20479;-85
2021/07/13 10:13:12;;;;;;;24.63;19.23;;;24.50;99.90;;;;;;5073810;28;20453;-85
2021/07/13 10:15:39;;;;;;;26.43;19.27;;;24.50;99.90;;;;;;5072412;28;20482;-86
2021/07/13 10:18:06;;;;;;;27.90;20.10;;;24.50;99.90;;;;;;5042628;28;20453;-85
2021/07/13 10:20:34;;;;;;;25.70;19.77;;;24.60;99.90;;;;;;5062236;28;20466;-85
2021/07/13 10:23:03;;;;;;;25.30;17.57;;;24.60;99.90;;;;;;5073460;28;20443;-86
2021/07/13 10:25:37;;;;;;;24.13;16.67;;;24.70;99.90;;;;;;5058858;28;20455;-86
2021/07/13 10:28:06;;;;;;;24.60;15.20;;;24.70;99.90;;;;;;5053575;28;20479;-86
2021/07/13 10:30:42;;;;;;;23.37;15.40;;;24.70;99.90;;;;;;5053113;28;20467;-88
2021/07/13 10:33:29;;;;;;;22.80;15.87;;;24.70;99.90;;;;;;5052170;28;21020;-87
2021/07/13 10:35:57;;;;;;;25.57;17.70;;;24.80;99.90;;;;;;5059354;28;20451;-86
2021/07/13 10:38:24;;;;;;;28.17;19.17;;;24.90;99.90;;;;;;5065280;28;20443;-87
2021/07/13 10:40:54;;;;;;;27.03;16.10;;;24.90;99.90;;;;;;5072922;28;20467;-87
2021/07/13 10:43:26;;;;;;;25.33;16.07;;;25.00;99.90;;;;;;5072870;28;20451;-87
2021/07/13 10:46:08;;;;;;;22.90;16.13;;;25.20;99.90;;;;;;5063588;28;20443;-88
2021/07/13 10:48:38;;;;;;;29.63;18.23;;;25.20;99.90;;;;;;5066552;28;20467;-88
2021/07/13 10:51:06;;;;;;;23.80;15.30;;;25.20;99.90;;;;;;5033792;28;20554;-88
2021/07/13 10:53:38;;;;;;;25.10;14.60;;;25.20;99.90;;;;;;5032578;28;20464;-87
2021/07/13 10:56:30;;;;;;;23.77;13.60;;;25.20;99.90;;;;;;5032626;28;20463;-87
2021/07/13 10:58:58;;;;;;;25.10;15.00;;;25.10;99.90;;;;;;5033239;28;20440;-87
2021/07/13 11:01:30;;;;;;;23.60;14.97;;;25.00;99.90;;;;;;5033259;28;20572;-87
2021/07/13 11:04:02;;;;;;;23.73;15.13;;;24.90;99.90;;;;;;5058413;28;21018;-87
2021/07/13 11:06:57;;;;;;;23.90;15.07;;;24.90;99.90;;;;;;5063420;28;20845;-87
2021/07/13 11:09:36;;;;;;;22.83;13.03;;;25.00;99.90;;;;;;5056966;28;20478;-86
2021/07/13 11:12:11;;;;;;;23.77;13.97;;;25.30;99.90;;;;;;5072256;28;21013;-87
2021/07/13 11:15:03;;;;;;;22.00;13.63;;;25.50;99.90;;;;;;5072167;28;20821;-86
2021/07/13 11:17:32;;;;;;;22.30;12.63;;;25.50;99.90;;;;;;5039724;28;20461;-87
2021/07/13 11:20:14;;;;;;;27.73;12.57;;;25.50;99.90;;;;;;5059416;28;20454;-87
2021/07/13 11:22:43;;;;;;;22.30;11.93;;;25.40;99.90;;;;;;5061953;28;20463;-87
2021/07/13 11:25:29;;;;;;;23.80;12.70;;;25.30;99.90;;;;;;5053544;28;20454;-86
2021/07/13 11:28:07;;;;;;;22.50;12.47;;;25.20;99.90;;;;;;5060420;28;20483;-87
2021/07/13 11:30:36;;;;;;;19.97;11.00;;;25.10;99.90;;;;;;5056632;28;20554;-86
2021/07/13 11:33:07;;;;;;;22.60;11.57;;;25.20;99.90;;;;;;5051567;28;20460;-86
2021/07/13 11:35:35;;;;;;;22.10;11.53;;;25.10;99.90;;;;;;5054047;28;20444;-85
2021/07/13 11:38:06;;;;;;;24.10;10.60;;;25.00;99.90;;;;;;5051919;28;20448;-86
2021/07/13 11:40:34;;;;;;;22.00;11.00;;;25.00;99.90;;;;;;5050761;28;20824;-87
2021/07/13 11:43:01;;;;;;;21.87;11.23;;;25.00;99.90;;;;;;5051830;28;20454;-87
2021/07/13 11:45:28;;;;;;;21.67;11.30;;;25.00;99.90;;;;;;5050188;28;20454;-86
2021/07/13 11:48:06;;;;;;;21.33;10.87;;;24.90;99.90;;;;;;5048787;28;21030;-87
2021/07/13 11:50:33;;;;;;;21.10;10.67;;;24.70;99.90;;;;;;5032102;28;20484;-86
2021/07/13 11:53:23;;;;;;;21.23;10.47;;;24.70;99.90;;;;;;5047168;28;20456;-86
2021/07/13 11:56:03;;;;;;;23.90;11.40;;;24.60;99.90;;;;;;5051042;28;20551;-87
2021/07/13 11:58:32;;;;;;;21.93;11.77;;;24.60;99.90;;;;;;5051275;28;20463;-86
2021/07/13 12:01:18;;;;;;;21.97;12.23;;;24.60;99.90;;;;;;5044616;28;20480;-86
2021/07/13 12:03:46;;;;;;;20.50;11.10;;;24.70;99.90;;;;;;5032869;28;20463;-86
2021/07/13 12:06:16;;;;;;;24.70;10.30;;;24.80;99.90;;;;;;5042306;28;20835;-88
2021/07/13 12:08:44;;;;;;;29.80;11.47;;;24.90;99.90;;;;;;5050493;28;21113;-86
2021/07/13 12:11:12;;;;;;;20.17;9.83;;;25.00;99.90;;;;;;5051408;28;20503;-87
2021/07/13 12:13:38;;;;;;;20.70;11.20;;;25.10;99.90;;;;;;5046502;28;20461;-88
2021/07/13 12:16:16;;;;;;;20.73;9.67;;;25.20;99.90;;;;;;5030797;28;20482;-87
2021/07/13 12:18:43;;;;;;;22.90;9.30;;;25.20;99.90;;;;;;5032805;28;20445;-88
2021/07/13 12:21:13;;;;;;;24.00;10.10;;;25.40;99.90;;;;;;5052983;28;20462;-87
2021/07/13 12:23:41;;;;;;;22.83;9.53;;;25.40;99.90;;;;;;5055981;28;20456;-87
2021/07/13 12:26:26;;;;;;;21.73;9.40;;;25.30;99.90;;;;;;5049530;28;20483;-86
2021/07/13 12:29:04;;;;;;;26.10;10.80;;;25.20;99.90;;;;;;5070660;28;20517;-88
2021/07/13 12:31:32;;;;;;;26.07;10.30;;;25.00;99.90;;;;;;5082545;28;20498;-88
2021/07/13 12:34:00;;;;;;;23.13;10.10;;;24.80;99.90;;;;;;5051541;28;20541;-87
2021/07/13 12:36:31;;;;;;;20.07;9.37;;;24.70;99.90;;;;;;5031776;28;20449;-88
2021/07/13 12:39:12;;;;;;;20.60;10.03;;;24.70;99.90;;;;;;5030637;28;20455;-87
2021/07/13 12:41:39;;;;;;;22.17;11.77;;;24.60;99.90;;;;;;5031702;28;20469;-88
2021/07/13 12:44:31;;;;;;;22.67;9.80;;;24.70;99.90;;;;;;5031155;28;20848;-87
2021/07/13 12:47:16;;;;;;;24.17;10.80;;;24.60;99.90;;;;;;5032673;28;20449;-87
2021/07/13 12:49:58;;;;;;;23.57;11.03;;;24.60;99.90;;;;;;5030483;28;20472;-87
2021/07/13 12:52:33;;;;;;;25.07;11.73;;;24.60;99.90;;;;;;5030944;28;20480;-89
2021/07/13 12:55:02;;;;;;;22.00;10.97;;;24.50;99.90;;;;;;5048974;28;20863;-88
2021/07/13 12:57:33;;;;;;;23.60;12.00;;;24.50;99.90;;;;;;5050560;28;20459;-88
2021/07/13 13:00:02;;;;;;;21.00;10.10;;;24.40;99.90;;;;;;5050126;28;20454;-86
2021/07/13 13:02:29;;;;;;;23.20;10.50;;;24.40;99.90;;;;;;5051016;28;20463;-88
2021/07/13 13:04:56;;;;;;;24.60;12.20;;;24.40;99.90;;;;;;5051000;28;20452;-86
2021/07/13 13:07:23;;;;;;;26.90;13.77;;;24.40;99.90;;;;;;5062233;28;20461;-87
2021/07/13 13:09:52;;;;;;;24.50;12.07;;;24.30;99.90;;;;;;5072672;28;21036;-86
2021/07/13 13:12:19;;;;;;;24.07;15.10;;;24.20;99.90;;;;;;5074985;28;20474;-86
2021/07/13 13:14:46;;;;;;;26.40;14.30;;;24.20;99.90;;;;;;5074657;28;20523;-86
2021/07/13 13:17:16;;;;;;;23.83;12.93;;;24.10;99.90;;;;;;5075012;28;20455;-86
2021/07/13 13:19:44;;;;;;;24.10;13.53;;;24.10;99.90;;;;;;5063719;28;20457;-87
2021/07/13 13:22:13;;;;;;;24.67;14.33;;;24.00;99.90;;;;;;5034558;28;20559;-86
2021/07/13 13:24:41;;;;;;;25.93;14.17;;;24.00;99.90;;;;;;5034691;28;20453;-86
2021/07/13 13:27:10;;;;;;;21.20;12.47;;;24.00;99.90;;;;;;5054471;28;20959;-87
2021/07/13 13:29:37;;;;;;;27.33;15.27;;;24.10;99.90;;;;;;5068342;28;20485;-86
2021/07/13 13:32:04;;;;;;;23.60;13.00;;;24.00;99.90;;;;;;5059143;28;20468;-87
2021/07/13 13:34:33;;;;;;;25.37;15.07;;;24.10;99.90;;;;;;5040104;28;20452;-87
2021/07/13 13:37:06;;;;;;;23.77;13.50;;;24.10;99.90;;;;;;5051647;28;20478;-88
2021/07/13 13:39:33;;;;;;;28.40;14.47;;;24.10;99.90;;;;;;5049937;28;20456;-86
2021/07/13 13:42:01;;;;;;;26.60;14.17;;;24.10;99.90;;;;;;5058988;28;20458;-87
2021/07/13 13:44:31;;;;;;;24.00;13.97;;;24.00;99.90;;;;;;5052877;28;21126;-86
2021/07/13 13:46:59;;;;;;;27.70;15.60;;;24.00;99.90;;;;;;5053226;28;20477;-88
2021/07/13 13:49:26;;;;;;;27.17;15.37;;;23.90;99.90;;;;;;5044966;28;20561;-87
2021/07/13 13:51:57;;;;;;;22.87;15.03;;;23.80;99.90;;;;;;5055915;28;20590;-87
2021/07/13 13:54:24;;;;;;;24.77;15.77;;;23.80;99.90;;;;;;5055875;28;20482;-87
2021/07/13 13:56:53;;;;;;;28.27;16.57;;;23.80;99.90;;;;;;5065167;28;20449;-87
2021/07/13 13:59:22;;;;;;;26.40;16.27;;;23.80;99.90;;;;;;5060650;28;20942;-88
2021/07/13 14:01:53;;;;;;;25.80;16.90;;;23.70;99.90;;;;;;5056329;28;20468;-88
2021/07/13 14:04:19;;;;;;;25.93;14.93;;;23.80;99.90;;;;;;5052490;28;20527;-86
2021/07/13 14:06:46;;;;;;;28.90;18.40;;;23.80;99.90;;;;;;5052158;28;20467;-86
2021/07/13 14:09:13;;;;;;;25.20;16.50;;;23.80;99.90;;;;;;5052970;28;20487;-86
2021/07/13 14:11:40;;;;;;;27.67;16.40;;;23.80;99.90;;;;;;5064568;28;20475;-86
2021/07/13 14:14:06;;;;;;;27.73;17.63;;;23.90;99.90;;;;;;5053025;28;20451;-86
2021/07/13 14:16:33;;;;;;;27.17;17.50;;;23.90;99.90;;;;;;5054099;28;20458;-85
2021/07/13 14:19:02;;;;;;;27.23;17.13;;;24.00;99.90;;;;;;5053738;28;20539;-85
2021/07/13 14:21:29;;;;;;;25.70;15.70;;;24.00;99.90;;;;;;5072680;28;20472;-85
2021/07/13 14:23:55;;;;;;;27.50;17.67;;;24.10;99.90;;;;;;5069162;28;20451;-85
2021/07/13 14:26:23;;;;;;;22.43;15.93;;;24.20;99.90;;;;;;5078545;28;20457;-86
2021/07/13 14:28:50;;;;;;;25.50;14.97;;;24.30;99.90;;;;;;5076932;28;20926;-85
2021/07/13 14:31:17;;;;;;;23.53;15.03;;;24.40;99.90;;;;;;5059462;28;20487;-86
2021/07/13 14:33:43;;;;;;;22.63;14.30;;;24.60;99.90;;;;;;5043052;28;20463;-85
2021/07/13 14:36:12;;;;;;;25.13;15.23;;;24.80;99.90;;;;;;5054870;28;20462;-85
2021/07/13 14:38:39;;;;;;;22.50;14.60;;;25.00;99.90;;;;;;5054875;28;20498;-87
2021/07/13 14:41:06;;;;;;;23.00;13.60;;;25.30;99.90;;;;;;5035641;28;20472;-86
2021/07/13 14:43:32;;;;;;;23.53;13.47;;;25.50;99.90;;;;;;5060067;28;20447;-85
2021/07/13 14:45:59;;;;;;;23.80;14.13;;;25.60;99.90;;;;;;5051399;28;20458;-85
2021/07/13 14:48:26;;;;;;;26.33;15.17;;;25.80;99.90;;;;;;5053639;28;20448;-86
2021/07/13 14:50:53;;;;;;;38.40;20.40;;;25.90;99.90;;;;;;5052604;28;21033;-86
2021/07/13 14:53:25;;;;;;;29.17;17.30;;;26.00;99.90;;;;;;5064562;28;20456;-85
2021/07/13 14:55:53;;;;;;;32.57;19.97;;;26.10;99.90;;;;;;5052582;28;20839;-85
2021/07/13 14:58:21;;;;;;;33.90;19.43;;;26.00;99.90;;;;;;5055806;28;20455;-85
2021/07/13 15:00:48;;;;;;;30.87;19.30;;;25.80;99.90;;;;;;5067916;28;20460;-86
2021/07/13 15:03:15;;;;;;;31.67;20.60;;;25.50;99.90;;;;;;5080072;28;20439;-86
2021/07/13 15:05:42;;;;;;;34.07;21.30;;;25.30;99.90;;;;;;5076002;28;20453;-85
2021/07/13 15:08:10;;;;;;;33.97;19.60;;;25.00;99.90;;;;;;5068705;28;20823;-86
2021/07/13 15:10:39;;;;;;;30.30;19.03;;;24.90;99.90;;;;;;5080072;28;20476;-84
2021/07/13 15:13:06;;;;;;;33.27;20.90;;;24.80;99.90;;;;;;5078946;28;20468;-85
2021/07/13 15:15:33;;;;;;;30.60;19.93;;;24.70;99.90;;;;;;5052952;28;20447;-85
2021/07/13 15:18:00;;;;;;;31.87;20.40;;;24.50;99.90;;;;;;5053957;28;20444;-87
2021/07/13 15:20:27;;;;;;;34.97;22.20;;;24.50;99.90;;;;;;5058942;28;20470;-85
2021/07/13 15:22:54;;;;;;;31.20;19.67;;;24.40;99.90;;;;;;5043450;28;20459;-85
2021/07/13 15:25:21;;;;;;;29.60;20.17;;;24.40;99.90;;;;;;5049792;28;20462;-85
2021/07/13 15:27:49;;;;;;;30.50;19.30;;;24.40;99.90;;;;;;5053296;28;20445;-87
2021/07/13 15:30:17;;;;;;;29.77;18.30;;;24.30;99.90;;;;;;5040854;28;20480;-87
2021/07/13 15:32:44;;;;;;;29.50;18.23;;;24.30;99.90;;;;;;5051823;28;20463;-86
2021/07/13 15:35:11;;;;;;;28.53;18.07;;;24.10;99.90;;;;;;5047272;28;20464;-85
2021/07/13 15:37:38;;;;;;;29.73;17.87;;;24.00;99.90;;;;;;5050951;28;20843;-85